Time;durP1;ratioP1;P1;durP2;ratioP2;P2;SDS_P1;SDS_P2;PMS_P1;PMS_P2;Temp;Humidity;BMP_temperature;BMP_pressure;BME280_temperature;BME280_humidity;BME280_pressure;Samples;Min_cycle;Max_cycle;Signal;HPM_P1;HPM_P2
2021/09/09 00:01:15;;;;;;;;;25.25;23.50;;;;;23.01;77.91;100168.47;5077384;27;45495;-64
2021/09/09 00:03:40;;;;;;;;;32.50;30.50;;;;;23.03;78.04;100170.00;5077505;28;45421;-64
2021/09/09 00:06:06;;;;;;;;;29.00;26.25;;;;;23.01;77.95;100157.75;5077399;27;45338;-65
2021/09/09 00:08:31;;;;;;;;;31.75;27.50;;;;;22.98;78.31;100158.03;5076930;28;45515;-65
2021/09/09 00:10:57;;;;;;;;;27.50;26.50;;;;;23.01;77.95;100174.69;5076953;27;45440;-65
2021/09/09 00:13:22;;;;;;;;;34.75;29.50;;;;;23.01;78.57;100179.19;5077033;27;45410;-64
2021/09/09 00:15:47;;;;;;;;;31.00;26.75;;;;;22.98;78.21;100176.81;5076816;27;45405;-64
2021/09/09 00:18:13;;;;;;;;;28.50;25.75;;;;;22.96;78.08;100179.66;5076907;27;46327;-65
2021/09/09 00:20:38;;;;;;;;;31.75;30.00;;;;;22.95;78.04;100177.97;5075159;28;45684;-65
2021/09/09 00:23:04;;;;;;;;;32.00;28.50;;;;;22.91;78.52;100161.34;5076589;27;45502;-64
2021/09/09 00:25:29;;;;;;;;;25.50;22.75;;;;;22.94;78.13;100164.72;5076810;28;45425;-65
2021/09/09 00:27:55;;;;;;;;;32.50;27.75;;;;;22.88;77.96;100161.66;5076396;27;46207;-65
2021/09/09 00:30:20;;;;;;;;;31.00;27.50;;;;;22.89;78.39;100155.28;5076440;27;45188;-64
2021/09/09 00:32:46;;;;;;;;;29.50;27.00;;;;;22.86;77.99;100147.56;5076714;27;45233;-64
2021/09/09 00:35:12;;;;;;;;;32.75;29.75;;;;;22.83;78.60;100145.19;5076370;27;45223;-64
2021/09/09 00:37:37;;;;;;;;;25.25;25.00;;;;;22.86;78.67;100146.72;5091925;27;45380;-64
2021/09/09 00:40:04;;;;;;;;;33.50;27.00;;;;;22.86;79.07;100144.88;5076497;27;45220;-64
2021/09/09 00:42:29;;;;;;;;;28.50;28.50;;;;;22.85;78.81;100145.88;5076334;27;45305;-65
2021/09/09 00:44:54;;;;;;;;;25.50;25.50;;;;;22.86;78.58;100146.72;5076315;27;45299;-64
2021/09/09 00:47:20;;;;;;;;;30.25;28.25;;;;;22.83;78.38;100147.84;5091445;27;47369;-64
2021/09/09 00:49:45;;;;;;;;;27.50;27.00;;;;;22.84;78.14;100146.03;5076262;27;45331;-66
2021/09/09 00:52:14;;;;;;;;;28.00;27.25;;;;;22.81;77.86;100147.16;5076059;27;45457;-65
2021/09/09 00:54:41;;;;;;;;;31.50;26.25;;;;;22.78;78.57;100150.16;5076287;27;45583;-66
2021/09/09 00:57:08;;;;;;;;;25.00;24.75;;;;;22.76;78.32;100158.34;5075859;27;45372;-67
2021/09/09 00:59:35;;;;;;;;;24.50;22.50;;;;;22.76;78.31;100154.81;5075653;27;45284;-67
2021/09/09 01:02:02;;;;;;;;;23.00;19.50;;;;;22.74;78.05;100159.50;5074500;28;45314;-67
2021/09/09 01:04:27;;;;;;;;;27.00;24.75;;;;;22.76;78.00;100171.72;5075578;27;45534;-66
2021/09/09 01:06:55;;;;;;;;;24.50;22.00;;;;;22.77;77.93;100168.06;5075536;27;46220;-67
2021/09/09 01:09:21;;;;;;;;;21.75;21.75;;;;;22.75;78.03;100161.19;5074202;28;45330;-67
2021/09/09 01:11:46;;;;;;;;;29.00;22.75;;;;;22.77;78.17;100161.88;5075997;27;45353;-66
2021/09/09 01:14:14;;;;;;;;;25.75;21.25;;;;;22.74;77.97;100163.00;5075850;27;45193;-66
2021/09/09 01:16:41;;;;;;;;;24.75;20.25;;;;;22.71;78.08;100157.13;5075518;27;45891;-67
2021/09/09 01:19:07;;;;;;;;;26.00;22.00;;;;;22.70;77.60;100169.66;5073887;28;45458;-67
2021/09/09 01:21:34;;;;;;;;;24.25;22.50;;;;;22.67;77.85;100169.97;5075695;27;45383;-67
2021/09/09 01:24:00;;;;;;;;;24.00;21.75;;;;;22.66;77.76;100172.81;5075708;28;45331;-67
2021/09/09 01:26:28;;;;;;;;;26.00;25.00;;;;;22.67;77.65;100169.13;5075383;27;47096;-68
2021/09/09 01:28:55;;;;;;;;;23.75;23.25;;;;;22.66;78.03;100162.09;5075295;27;45328;-68
2021/09/09 01:31:22;;;;;;;;;22.75;20.00;;;;;22.69;77.86;100167.97;5074148;28;45406;-67
2021/09/09 01:33:47;;;;;;;;;25.00;23.00;;;;;22.68;77.78;100165.47;5075964;27;45373;-68
2021/09/09 01:36:12;;;;;;;;;21.00;20.00;;;;;22.67;77.41;100169.97;5073881;27;45359;-67
2021/09/09 01:38:38;;;;;;;;;23.00;21.50;;;;;22.69;77.22;100176.00;5075362;27;45335;-66
2021/09/09 01:41:03;;;;;;;;;22.00;21.00;;;;;22.68;77.26;100171.66;5075469;28;45288;-67
2021/09/09 01:43:30;;;;;;;;;23.00;22.75;;;;;22.70;77.63;100158.94;5075687;27;45545;-66
2021/09/09 01:45:55;;;;;;;;;22.50;21.25;;;;;22.75;77.15;100171.91;5090733;27;46797;-67
2021/09/09 01:48:21;;;;;;;;;20.75;19.50;;;;;22.76;77.19;100173.59;5075596;27;45236;-67
2021/09/09 01:50:46;;;;;;;;;24.25;22.50;;;;;22.77;77.25;100180.63;5075861;27;45377;-67
2021/09/09 01:53:12;;;;;;;;;24.00;21.25;;;;;22.74;77.29;100175.56;5075486;27;45710;-67
2021/09/09 01:55:38;;;;;;;;;23.75;22.25;;;;;22.79;76.94;100189.38;5075020;27;47473;-66
2021/09/09 01:58:03;;;;;;;;;23.50;21.00;;;;;22.80;77.08;100190.19;5074850;27;45349;-66
2021/09/09 02:00:29;;;;;;;;;27.75;22.25;;;;;22.83;77.12;100192.59;5075129;27;45348;-67
2021/09/09 02:02:54;;;;;;;;;22.25;21.50;;;;;22.84;76.70;100197.81;5074559;28;45465;-67
2021/09/09 02:05:20;;;;;;;;;24.00;21.50;;;;;22.83;76.36;100190.75;5075233;27;45247;-67
2021/09/09 02:07:45;;;;;;;;;27.75;24.50;;;;;22.85;76.59;100193.31;5074786;27;45532;-67
2021/09/09 02:10:10;;;;;;;;;24.25;24.25;;;;;22.83;76.62;100185.41;5074911;27;45303;-67
2021/09/09 02:12:36;;;;;;;;;23.50;22.50;;;;;22.81;75.95;100183.88;5075121;27;45755;-67
2021/09/09 02:15:03;;;;;;;;;25.50;25.00;;;;;22.75;76.53;100180.78;5074536;27;45450;-67
2021/09/09 02:17:28;;;;;;;;;32.50;29.00;;;;;22.77;76.19;100189.50;5074652;27;45581;-67
2021/09/09 02:19:53;;;;;;;;;27.50;24.25;;;;;22.77;76.65;100196.72;5074739;27;45429;-66
2021/09/09 02:22:19;;;;;;;;;26.75;25.25;;;;;22.76;76.24;100197.72;5075285;27;45595;-66
2021/09/09 02:24:47;;;;;;;;;28.00;24.25;;;;;22.75;76.37;100196.84;5073208;28;48452;-66
2021/09/09 02:27:14;;;;;;;;;24.50;24.25;;;;;22.77;76.32;100196.72;5074532;27;45255;-66
2021/09/09 02:29:41;;;;;;;;;26.75;26.50;;;;;22.80;76.46;100190.19;5074643;28;45455;-66
2021/09/09 02:32:06;;;;;;;;;28.00;24.75;;;;;22.84;76.68;100192.44;5073936;28;45612;-66
2021/09/09 02:34:32;;;;;;;;;25.25;24.50;;;;;22.85;76.19;100193.31;5074695;27;46371;-67
2021/09/09 02:36:57;;;;;;;;;30.75;27.75;;;;;22.82;76.10;100177.50;5074791;27;45386;-68
2021/09/09 02:39:23;;;;;;;;;27.50;23.75;;;;;22.85;76.47;100177.22;5074931;27;45501;-67
2021/09/09 02:41:48;;;;;;;;;28.75;25.75;;;;;22.81;76.33;100171.28;5074795;27;45521;-67
2021/09/09 02:44:13;;;;;;;;;26.75;24.75;;;;;22.80;76.39;100174.13;5074313;27;45426;-67
2021/09/09 02:46:39;;;;;;;;;27.00;24.25;;;;;22.82;75.89;100174.84;5072877;28;45435;-68
2021/09/09 02:49:04;;;;;;;;;28.75;26.75;;;;;22.81;76.50;100179.34;5074639;27;45278;-68
2021/09/09 02:51:30;;;;;;;;;28.50;26.50;;;;;22.81;75.97;100179.34;5074632;27;45300;-66
2021/09/09 02:53:55;;;;;;;;;25.00;23.50;;;;;22.81;76.31;100181.19;5074222;27;45604;-67
2021/09/09 02:56:20;;;;;;;;;27.00;26.75;;;;;22.84;76.20;100181.72;5074660;27;45237;-67
2021/09/09 02:58:46;;;;;;;;;27.75;23.75;;;;;22.85;76.15;100182.56;5074489;27;45342;-65
2021/09/09 03:01:12;;;;;;;;;26.25;24.50;;;;;22.84;76.17;100181.72;5074395;27;45271;-66
2021/09/09 03:03:38;;;;;;;;;29.00;24.75;;;;;22.88;76.24;100190.31;5074271;27;46542;-66
2021/09/09 03:06:03;;;;;;;;;21.50;19.50;;;;;22.89;75.92;100190.16;5074049;27;45302;-66
2021/09/09 03:08:29;;;;;;;;;21.25;20.25;;;;;22.89;76.15;100189.31;5072520;28;45319;-66
2021/09/09 03:10:54;;;;;;;;;25.25;19.50;;;;;22.88;76.00;100185.78;5074434;27;45464;-65
2021/09/09 03:13:19;;;;;;;;;30.25;23.00;;;;;22.88;75.73;100172.38;5073812;27;45387;-65
2021/09/09 03:15:45;;;;;;;;;22.75;20.75;;;;;22.88;75.71;100172.38;5075271;27;45464;-66
2021/09/09 03:18:10;;;;;;;;;20.50;20.25;;;;;22.87;75.99;100180.59;5077570;27;45356;-65
2021/09/09 03:20:35;;;;;;;;;24.50;22.75;;;;;22.87;75.75;100180.59;5077847;27;45912;-66
2021/09/09 03:23:01;;;;;;;;;23.50;20.50;;;;;22.83;75.62;100177.34;5077409;27;46188;-66
2021/09/09 03:25:26;;;;;;;;;27.25;25.00;;;;;22.80;75.83;100174.97;5077350;27;45422;-66
2021/09/09 03:27:52;;;;;;;;;24.25;22.50;;;;;22.70;76.03;100168.84;5077843;27;45388;-66
2021/09/09 03:30:17;;;;;;;;;30.25;25.75;;;;;;;;5077643;27;45626;-66
2021/09/09 03:32:42;;;;;;;;;27.25;24.25;;;;;22.69;76.56;100165.28;5077241;28;45554;-66
2021/09/09 03:35:08;;;;;;;;;22.75;22.25;;;;;22.68;76.35;100171.66;5077306;27;45420;-66
2021/09/09 03:37:34;;;;;;;;;25.25;24.00;;;;;22.65;76.68;100163.91;5077317;27;45386;-66
2021/09/09 03:39:59;;;;;;;;;29.75;26.50;;;;;22.63;76.38;100162.38;5077474;27;45456;-65
2021/09/09 03:42:24;;;;;;;;;35.25;29.00;;;;;22.44;76.47;100129.31;5077373;27;45823;-67
2021/09/09 03:44:50;;;;;;;;;30.50;27.25;;;;;22.58;76.56;100150.28;5077122;27;45279;-67
2021/09/09 03:47:15;;;;;;;;;29.75;26.25;;;;;22.55;76.76;100152.41;5077081;27;45398;-67
2021/09/09 03:49:40;;;;;;;;;30.50;28.75;;;;;22.59;76.75;100162.69;5077054;27;45185;-67
2021/09/09 03:52:06;;;;;;;;;34.25;29.75;;;;;22.61;76.46;100158.03;5076977;27;46411;-68
2021/09/09 03:54:31;;;;;;;;;25.75;23.25;;;;;22.59;76.88;100151.13;5077068;27;45286;-67
2021/09/09 03:56:57;;;;;;;;;26.75;21.75;;;;;22.59;76.68;100161.84;5077499;27;45901;-66
2021/09/09 03:59:22;;;;;;;;;26.50;25.25;;;;;22.59;76.71;100157.34;5077173;27;45216;-66
2021/09/09 04:01:47;;;;;;;;;27.75;26.75;;;;;22.55;76.40;100157.78;5076923;27;46729;-64
2021/09/09 04:04:13;;;;;;;;;28.00;25.50;;;;;22.55;76.40;100163.13;5076771;27;45237;-65
2021/09/09 04:06:39;;;;;;;;;30.25;26.75;;;;;22.46;76.67;100152.31;5076181;28;45385;-66
2021/09/09 04:09:04;;;;;;;;;26.25;22.50;;;;;22.51;76.86;100170.66;5076712;28;45489;-65
2021/09/09 04:11:29;;;;;;;;;28.75;26.25;;;;;22.45;77.23;100165.88;5076661;27;45276;-65
2021/09/09 04:13:55;;;;;;;;;31.75;27.75;;;;;22.43;76.84;100159.78;5077042;27;45310;-65
2021/09/09 04:16:21;;;;;;;;;31.00;24.50;;;;;22.41;77.20;100156.44;5076710;27;46004;-68
2021/09/09 04:18:46;;;;;;;;;26.25;24.00;;;;;22.40;76.93;100163.59;5077015;27;45612;-67
2021/09/09 04:21:11;;;;;;;;;30.75;29.75;;;;;22.36;77.12;100156.03;5076460;27;45288;-66
2021/09/09 04:23:37;;;;;;;;;30.00;28.00;;;;;22.32;77.11;100145.59;5076583;27;45398;-66
2021/09/09 04:26:02;;;;;;;;;32.00;27.00;;;;;22.31;77.13;100141.25;5076480;27;45342;-65
2021/09/09 04:28:27;;;;;;;;;27.50;26.00;;;;;22.27;77.09;100147.91;5077233;27;45564;-67
2021/09/09 04:30:53;;;;;;;;;29.00;26.75;;;;;22.20;77.35;100138.75;5076429;27;46099;-66
2021/09/09 04:33:20;;;;;;;;;32.25;29.50;;;;;22.14;77.74;100136.66;5075233;28;45394;-67
2021/09/09 04:35:45;;;;;;;;;30.00;28.00;;;;;22.08;77.66;100135.44;5076765;27;45467;-67
2021/09/09 04:38:10;;;;;;;;;33.50;30.25;;;;;22.03;77.66;100130.50;5075103;28;45397;-68
2021/09/09 04:40:36;;;;;;;;;32.50;28.00;;;;;21.96;78.04;100121.38;5076027;27;45564;-67
2021/09/09 04:43:01;;;;;;;;;31.50;29.25;;;;;21.92;78.11;100122.66;5076355;27;45267;-67
2021/09/09 04:45:27;;;;;;;;;30.50;29.50;;;;;21.96;78.20;100124.03;5076499;27;45299;-66
2021/09/09 04:47:52;;;;;;;;;33.75;29.00;;;;;21.95;78.23;100126.88;5076401;27;45682;-66
2021/09/09 04:50:17;;;;;;;;;35.25;30.50;;;;;21.94;78.08;100123.34;5091566;27;46269;-68
2021/09/09 04:52:43;;;;;;;;;37.50;32.75;;;;;21.96;78.22;100117.88;5076119;27;45342;-67
2021/09/09 04:55:09;;;;;;;;;32.00;28.50;;;;;21.95;78.10;100129.56;5076270;27;45413;-67
2021/09/09 04:57:35;;;;;;;;;40.50;31.75;;;;;21.92;78.03;100119.97;5074959;28;45557;-66
2021/09/09 05:00:00;;;;;;;;;34.75;30.25;;;;;21.92;77.89;100128.00;5076118;27;45171;-68
2021/09/09 05:02:25;;;;;;;;;40.75;32.50;;;;;21.91;78.13;100136.22;5075890;27;45401;-67
2021/09/09 05:04:51;;;;;;;;;37.75;31.25;;;;;21.85;78.69;100132.25;5076338;27;45412;-67
2021/09/09 05:07:16;;;;;;;;;36.25;31.25;;;;;21.85;78.27;100127.78;5076406;27;45339;-66
2021/09/09 05:09:41;;;;;;;;;34.50;32.50;;;;;21.84;78.20;100131.44;5075824;27;46311;-66
2021/09/09 05:12:07;;;;;;;;;35.50;31.75;;;;;21.78;78.19;100125.81;5075851;27;45339;-66
2021/09/09 05:14:34;;;;;;;;;40.75;32.75;;;;;21.76;78.04;100122.44;5074100;28;45366;-66
2021/09/09 05:17:00;;;;;;;;;32.75;29.50;;;;;21.72;78.45;100130.75;5076099;28;45407;-66
2021/09/09 05:19:25;;;;;;;;;36.50;31.75;;;;;21.70;78.54;100130.06;5075722;27;46439;-67
2021/09/09 05:21:51;;;;;;;;;32.00;28.50;;;;;21.71;78.54;100138.91;5075731;27;45301;-66
2021/09/09 05:24:16;;;;;;;;;35.00;30.50;;;;;21.69;78.31;100133.72;5074604;28;45369;-67
2021/09/09 05:26:42;;;;;;;;;37.75;32.75;;;;;21.67;78.14;100141.06;5075974;27;45749;-66
2021/09/09 05:29:07;;;;;;;;;34.25;31.25;;;;;21.68;78.37;100144.56;5075478;27;46040;-65
2021/09/09 05:31:32;;;;;;;;;40.75;33.00;;;;;21.67;78.08;100145.56;5075876;27;45262;-65
2021/09/09 05:33:58;;;;;;;;;36.75;32.50;;;;;21.66;78.46;100143.88;5076234;27;45243;-65
2021/09/09 05:36:23;;;;;;;;;36.25;31.75;;;;;21.64;78.33;100140.50;5076153;27;45283;-66
2021/09/09 05:38:48;;;;;;;;;36.50;31.75;;;;;21.67;78.09;100154.44;5074514;27;46677;-67
2021/09/09 05:41:14;;;;;;;;;38.75;31.50;;;;;21.64;78.21;100149.38;5075183;27;45472;-68
2021/09/09 05:43:39;;;;;;;;;36.00;32.25;;;;;21.67;77.78;100150.91;5073966;28;45302;-66
2021/09/09 05:46:05;;;;;;;;;35.75;32.00;;;;;21.67;77.66;100156.25;5074262;28;45243;-67
2021/09/09 05:48:30;;;;;;;;;38.25;32.75;;;;;21.69;77.78;100163.16;5075762;27;45504;-67
2021/09/09 05:50:55;;;;;;;;;42.25;34.25;;;;;21.67;77.77;100159.78;5090854;27;45468;-66
2021/09/09 05:53:21;;;;;;;;;35.50;32.25;;;;;21.69;77.74;100160.50;5075350;27;45775;-67
2021/09/09 05:55:46;;;;;;;;;36.50;32.25;;;;;21.73;77.56;100172.59;5075359;27;45413;-67
2021/09/09 05:58:12;;;;;;;;;38.75;32.25;;;;;21.82;77.34;100175.38;5075168;27;45499;-67
2021/09/09 06:00:38;;;;;;;;;39.50;35.00;;;;;21.88;77.57;100185.53;5073575;28;45440;-69
2021/09/09 06:03:04;;;;;;;;;40.50;35.25;;;;;21.95;77.58;100193.81;5074015;28;45383;-67
2021/09/09 06:05:32;;;;;;;;;42.50;34.50;;;;;22.02;77.22;100193.09;5075572;27;45469;-66
2021/09/09 06:07:57;;;;;;;;;37.50;34.00;;;;;22.11;77.25;100198.56;5075332;27;45304;-62
2021/09/09 06:10:23;;;;;;;;;43.25;36.00;;;;;22.18;76.20;100186.25;5075472;27;45362;-70
2021/09/09 06:12:48;;;;;;;;;46.75;36.25;;;;;22.32;76.39;100191.16;5073652;28;45234;-62
2021/09/09 06:15:14;;;;;;;;;38.25;32.50;;;;;22.36;75.83;100189.00;5075074;27;45277;-63
2021/09/09 06:17:40;;;;;;;;;38.50;33.00;;;;;22.40;75.95;100193.06;5075107;28;46510;-66
2021/09/09 06:20:06;;;;;;;;;43.25;35.25;;;;;22.41;75.61;100194.78;5074978;27;45478;-71
2021/09/09 06:22:32;;;;;;;;;42.75;33.00;;;;;22.46;75.53;100194.38;5073787;28;45427;-60
2021/09/09 06:24:57;;;;;;;;;42.00;35.25;;;;;22.50;75.69;100194.91;5075410;27;45407;-65
2021/09/09 06:27:23;;;;;;;;;36.00;32.50;;;;;22.50;75.35;100206.47;5074998;28;45415;-66
2021/09/09 06:29:49;;;;;;;;;38.25;34.25;;;;;22.52;74.90;100207.16;5074909;27;45610;-67
2021/09/09 06:32:14;;;;;;;;;41.50;33.75;;;;;22.59;75.00;100199.34;5073276;28;45346;-68
2021/09/09 06:34:40;;;;;;;;;38.00;34.75;;;;;22.67;74.45;100201.31;5074813;27;45331;-64
2021/09/09 06:37:05;;;;;;;;;39.00;33.25;;;;;22.66;74.32;100216.53;5074673;27;45800;-64
2021/09/09 06:39:30;;;;;;;;;41.00;33.25;;;;;22.67;74.41;100217.38;5074517;27;45401;-63
2021/09/09 06:41:56;;;;;;;;;39.00;32.75;;;;;22.73;74.25;100220.28;5074735;27;45270;-67
2021/09/09 06:44:21;;;;;;;;;37.75;33.00;;;;;22.77;74.09;100215.50;5074844;27;45666;-65
2021/09/09 06:46:47;;;;;;;;;39.00;33.00;;;;;22.86;74.41;100221.81;5074355;27;46197;-65
2021/09/09 06:49:12;;;;;;;;;37.00;33.00;;;;;22.89;73.81;100218.81;5075477;27;45252;-66
2021/09/09 06:51:38;;;;;;;;;38.25;31.50;;;;;22.93;73.73;100222.88;5078198;27;45250;-67
2021/09/09 06:54:05;;;;;;;;;34.00;31.75;;;;;22.87;73.39;100229.69;5077085;28;45287;-66
2021/09/09 06:56:31;;;;;;;;;44.00;33.75;;;;;22.90;73.47;100234.75;5076376;28;47862;-67
2021/09/09 06:58:56;;;;;;;;;45.75;35.25;;;;;22.86;73.83;100236.03;5076617;28;45685;-63
2021/09/09 07:01:22;;;;;;;;;44.50;36.25;;;;;22.81;73.15;100229.47;5076865;28;45714;-60
2021/09/09 07:03:48;;;;;;;;;41.00;33.75;;;;;22.83;73.91;100243.56;5078223;27;45464;-62
2021/09/09 07:06:15;;;;;;;;;47.00;36.00;;;;;22.81;73.36;100237.50;5077787;27;45822;-60
2021/09/09 07:08:41;;;;;;;;;41.50;34.25;;;;;22.74;73.89;100218.47;5078017;27;45361;-62
2021/09/09 07:11:07;;;;;;;;;45.75;35.00;;;;;22.82;73.53;100231.16;5078137;27;45334;-63
2021/09/09 07:13:33;;;;;;;;;37.75;34.00;;;;;22.81;73.54;100229.47;5078361;27;45209;-62
2021/09/09 07:15:59;;;;;;;;;45.00;36.50;;;;;22.74;73.63;100224.66;5077459;27;46475;-62
2021/09/09 07:18:26;;;;;;;;;44.25;35.75;;;;;22.80;73.83;100225.91;5077596;27;45235;-64
2021/09/09 07:20:52;;;;;;;;;42.25;33.00;;;;;22.81;73.62;100230.28;5077965;27;45407;-65
2021/09/09 07:23:18;;;;;;;;;36.75;32.50;;;;;22.79;73.41;100226.91;5077879;27;45438;-63
2021/09/09 07:25:43;;;;;;;;;41.25;34.75;;;;;22.77;73.37;100228.91;5077087;27;46559;-65
2021/09/09 07:28:09;;;;;;;;;48.00;35.00;;;;;22.81;73.79;100230.28;5076789;27;45503;-67
2021/09/09 07:30:35;;;;;;;;;37.50;34.50;;;;;22.85;73.49;100234.34;5077884;27;45404;-63
2021/09/09 07:33:01;;;;;;;;;41.75;34.50;;;;;22.83;73.21;100232.81;5076178;28;45430;-63
2021/09/09 07:35:26;;;;;;;;;37.25;33.50;;;;;22.81;73.59;100238.31;5077438;27;45421;-63
2021/09/09 07:37:52;;;;;;;;;40.50;35.25;;;;;22.80;73.39;100235.78;5077436;27;45330;-65
2021/09/09 07:40:17;;;;;;;;;40.25;33.75;;;;;22.82;73.24;100239.19;5076231;28;45802;-64
2021/09/09 07:42:43;;;;;;;;;48.75;40.25;;;;;22.83;73.80;100241.69;5076303;28;45317;-64
2021/09/09 07:45:10;;;;;;;;;43.50;34.50;;;;;22.92;73.23;100237.28;5076039;27;47451;-68
2021/09/09 07:47:35;;;;;;;;;39.75;32.50;;;;;22.95;72.79;100242.34;5077552;28;45258;-67
2021/09/09 07:50:00;;;;;;;;;38.25;31.50;;;;;22.94;72.93;100235.28;5075913;28;45291;-62
2021/09/09 07:52:26;;;;;;;;;37.75;32.00;;;;;23.02;72.70;100229.16;5077340;27;45624;-64
2021/09/09 07:54:51;;;;;;;;;32.00;30.00;;;;;23.14;71.84;100236.00;5076753;27;46253;-63
2021/09/09 07:57:17;;;;;;;;;36.00;33.25;;;;;23.27;71.60;100237.47;5077002;27;45341;-63
2021/09/09 07:59:42;;;;;;;;;43.50;36.00;;;;;23.34;71.18;100252.00;5076926;27;45401;-63
2021/09/09 08:02:07;;;;;;;;;34.25;30.00;;;;;23.33;71.37;100243.09;5076764;27;45358;-67
2021/09/09 08:04:33;;;;;;;;;33.50;31.50;;;;;23.34;71.22;100241.25;5075530;28;47960;-64
2021/09/09 08:06:59;;;;;;;;;39.25;31.25;;;;;23.44;71.23;100243.84;5076715;27;45380;-63
2021/09/09 08:09:24;;;;;;;;;34.00;32.00;;;;;23.49;70.53;100233.50;5076787;28;45947;-67
2021/09/09 08:11:50;;;;;;;;;37.50;32.00;;;;;23.60;70.39;100229.75;5077404;27;45936;-64
2021/09/09 08:14:15;;;;;;;;;33.50;30.50;;;;;23.65;70.19;100224.75;5092220;27;47294;-62
2021/09/09 08:16:41;;;;;;;;;44.25;34.75;;;;;23.72;70.23;100222.25;5076551;27;45421;-62
2021/09/09 08:19:06;;;;;;;;;35.00;31.75;;;;;23.78;69.55;100238.59;5077027;28;45325;-64
2021/09/09 08:21:32;;;;;;;;;37.25;30.25;;;;;23.82;69.13;100238.28;5077014;27;45660;-62
2021/09/09 08:23:57;;;;;;;;;36.50;31.25;;;;;23.83;69.12;100248.84;5076566;27;46083;-63
2021/09/09 08:26:23;;;;;;;;;36.50;31.75;;;;;23.82;68.97;100246.34;5076818;27;45232;-64
2021/09/09 08:28:48;;;;;;;;;37.50;32.50;;;;;23.83;68.82;100250.72;5075401;27;45413;-64
2021/09/09 08:31:13;;;;;;;;;38.00;33.00;;;;;23.81;68.84;100250.03;5075549;27;45467;-63
2021/09/09 08:33:42;;;;;;;;;34.00;31.25;;;;;23.83;68.66;100250.72;5077022;27;46495;-63
2021/09/09 08:36:08;;;;;;;;;35.00;30.25;;;;;23.82;68.59;100244.47;5076847;27;45437;-63
2021/09/09 08:38:33;;;;;;;;;32.00;30.00;;;;;23.94;68.40;100255.81;5076650;27;45295;-64
2021/09/09 08:41:01;;;;;;;;;34.50;31.25;;;;;24.02;68.09;100249.72;5077119;27;45571;-67
2021/09/09 08:43:27;;;;;;;;;33.00;30.75;;;;;24.13;67.70;100245.91;5076447;27;46570;-65
2021/09/09 08:45:54;;;;;;;;;34.00;29.50;;;;;24.21;67.34;100249.50;5075835;27;45227;-64
2021/09/09 08:48:19;;;;;;;;;34.25;30.00;;;;;24.27;67.30;100255.22;5075075;28;45303;-62
2021/09/09 08:50:45;;;;;;;;;31.25;30.50;;;;;24.31;66.85;100249.34;5076488;27;45241;-65
2021/09/09 08:53:11;;;;;;;;;24.75;24.75;;;;;24.35;66.48;100266.84;5076531;27;46149;-63
2021/09/09 08:55:37;;;;;;;;;37.25;31.25;;;;;24.38;66.13;100270.22;5076441;27;45350;-63
2021/09/09 08:58:05;;;;;;;;;34.50;29.75;;;;;24.29;65.81;100251.38;5074746;27;45503;-63
2021/09/09 09:00:31;;;;;;;;;35.00;30.25;;;;;24.28;66.24;100265.81;5076594;27;45674;-64
2021/09/09 09:02:57;;;;;;;;;32.50;30.50;;;;;24.29;66.23;100272.03;5076110;27;45777;-65
2021/09/09 09:05:23;;;;;;;;;35.75;30.25;;;;;24.28;66.31;100270.34;5076018;27;45533;-65
2021/09/09 09:08:00;;;;;;;;;33.50;30.25;;;;;24.22;66.45;100269.13;5076110;27;45307;-65
2021/09/09 09:10:27;;;;;;;;;34.75;29.75;;;;;24.18;66.27;100267.75;5074189;28;45394;-65
2021/09/09 09:12:53;;;;;;;;;28.50;27.00;;;;;24.09;66.32;100269.56;5074196;28;46029;-64
2021/09/09 09:15:22;;;;;;;;;25.50;22.75;;;;;23.98;66.67;100267.13;5075484;28;45468;-63
2021/09/09 09:18:06;;;;;;;;;35.00;30.25;;;;;23.97;66.88;100270.81;5075737;27;45336;-62
2021/09/09 09:20:39;;;;;;;;;33.75;26.50;;;;;24.05;66.78;100278.94;5075920;28;45590;-68
2021/09/09 09:23:24;;;;;;;;;26.50;25.50;;;;;24.14;66.35;100282.50;5075472;27;46154;-68
2021/09/09 09:25:51;;;;;;;;;27.75;27.25;;;;;24.16;66.46;100283.19;5075868;28;45475;-63
2021/09/09 09:28:38;;;;;;;;;27.00;24.25;;;;;24.11;66.42;100280.16;5075728;27;45269;-66
2021/09/09 09:31:13;;;;;;;;;25.50;24.50;;;;;24.06;66.53;100273.41;5076263;27;45429;-67
2021/09/09 09:33:43;;;;;;;;;26.25;25.50;;;;;24.12;66.72;100274.63;5074055;28;47795;-66
2021/09/09 09:36:15;;;;;;;;;32.50;28.25;;;;;24.15;67.02;100276.13;5090777;27;45527;-63
2021/09/09 09:38:42;;;;;;;;;25.25;22.50;;;;;24.19;66.58;100280.19;5076032;27;45571;-72
2021/09/09 09:41:07;;;;;;;;;25.00;24.25;;;;;24.20;66.58;100282.75;5075554;27;45468;-64
2021/09/09 09:43:34;;;;;;;;;23.25;22.25;;;;;24.20;66.50;100280.06;5073848;28;48567;-66
2021/09/09 09:45:59;;;;;;;;;26.50;22.25;;;;;24.20;66.25;100287.25;5075672;27;45297;-62
2021/09/09 09:48:26;;;;;;;;;24.75;22.25;;;;;24.21;66.18;100287.13;5075848;28;45413;-61
2021/09/09 09:50:51;;;;;;;;;25.25;22.25;;;;;24.31;66.29;100292.34;5075875;27;45636;-64
2021/09/09 09:53:18;;;;;;;;;29.00;25.25;;;;;24.46;66.28;100278.34;5076337;27;45251;-61
2021/09/09 09:55:45;;;;;;;;;30.25;25.00;;;;;24.65;65.75;100280.78;5076296;27;45283;-65
2021/09/09 09:58:11;;;;;;;;;28.50;25.50;;;;;24.78;65.68;100279.53;5076773;27;45322;-61
2021/09/09 10:00:36;;;;;;;;;28.25;26.00;;;;;24.93;65.48;100271.69;5076499;28;45364;-62
2021/09/09 10:03:02;;;;;;;;;22.25;22.25;;;;;25.12;64.90;100277.78;5075638;28;46217;-63
2021/09/09 10:05:34;;;;;;;;;26.25;22.50;;;;;25.33;64.30;100274.63;5073391;28;45495;-63
2021/09/09 10:08:03;;;;;;;;;27.75;22.75;;;;;25.46;63.81;100258.88;5075513;27;45409;-62
2021/09/09 10:10:29;;;;;;;;;24.75;22.75;;;;;25.81;63.06;100273.00;5075539;27;45338;-63
2021/09/09 10:12:55;;;;;;;;;23.50;19.50;;;;;26.08;62.38;100273.63;5073482;28;47214;-66
2021/09/09 10:15:22;;;;;;;;;28.75;26.00;;;;;26.29;61.80;100260.66;5073045;27;46229;-63
2021/09/09 10:17:49;;;;;;;;;26.00;24.75;;;;;26.65;61.02;100274.53;5073584;28;45267;-61
2021/09/09 10:20:31;;;;;;;;;23.75;21.50;;;;;26.85;59.58;100284.94;5075331;27;45527;-64
2021/09/09 10:23:11;;;;;;;;;24.75;23.75;;;;;26.97;59.61;100285.34;5073199;28;46347;-63
2021/09/09 10:25:54;;;;;;;;;24.25;23.25;;;;;26.98;59.50;100279.81;5072761;28;45377;-62
2021/09/09 10:28:32;;;;;;;;;24.75;22.00;;;;;27.10;58.61;100277.56;5074720;28;45282;-63
2021/09/09 10:31:05;;;;;;;;;25.25;23.75;;;;;27.25;58.36;100274.09;5090416;27;45585;-64
2021/09/09 10:33:31;;;;;;;;;27.75;22.75;;;;;27.38;58.21;100278.88;5073070;28;47232;-62
2021/09/09 10:35:57;;;;;;;;;22.75;20.00;;;;;27.52;57.22;100275.41;5072406;27;45537;-65
2021/09/09 10:38:24;;;;;;;;;27.75;25.75;;;;;27.51;57.43;100271.03;5074575;27;45312;-63
2021/09/09 10:40:49;;;;;;;;;24.75;22.25;;;;;27.55;56.69;100275.06;5073269;27;45366;-66
2021/09/09 10:43:24;;;;;;;;;19.75;19.50;;;;;27.60;56.41;100276.41;5073130;28;48157;-64
2021/09/09 10:45:58;;;;;;;;;30.75;29.75;;;;;27.66;57.01;100281.91;5089981;27;45590;-64
2021/09/09 10:48:24;;;;;;;;;29.50;22.75;;;;;27.83;56.27;100270.94;5074464;27;45351;-66
2021/09/09 10:50:56;;;;;;;;;23.00;20.00;;;;;27.94;55.11;100284.00;5073366;28;45378;-66
2021/09/09 10:53:37;;;;;;;;;23.75;19.25;;;;;27.92;55.08;100274.44;5074323;27;46142;-64
2021/09/09 10:56:15;;;;;;;;;19.75;18.75;;;;;27.86;53.95;100281.38;5074360;27;45209;-64
2021/09/09 10:58:42;;;;;;;;;20.75;19.50;;;;;27.99;54.80;100264.56;5074567;27;45532;-63
2021/09/09 11:01:09;;;;;;;;;18.75;17.75;;;;;28.22;54.29;100267.22;5074521;27;45899;-64
2021/09/09 11:03:46;;;;;;;;;21.75;17.75;;;;;28.59;53.07;100275.41;5073460;27;45449;-61
2021/09/09 11:06:23;;;;;;;;;19.75;19.50;;;;;28.53;52.43;100268.03;5073661;28;45396;-65